BEL2609 EBBR-EDDF
Flight info
| Callsign | BEL2609 |
|---|---|
| Flight time | 0h 40m |
| Altitude | 21000 |
| Route | SPI T180 NIVNU T847 IMCOM IMCOM1A |
| Aircraft | B739/M-SDE2E3FGHIRWXY/LB1 |
Departure
| Time | 2026-05-07 08:34 |
|---|---|
| Airport | Brussels Airport (EBBR) |
Arrival
| Time | 2026-05-07 09:14 |
|---|---|
| Airport | Frankfurt Main Airport (EDDF) |
| Time | Latitude | Longitude | Altitude | Speed | Heading |
|---|---|---|---|---|---|
| 2026-05-07 08:07 | 50.90455 | 4.48725 | 120 ft | 0 kts | 155° |
| 2026-05-07 08:23 | 50.90475 | 4.48711 | 116 ft | 4 kts | 155° |
| 2026-05-07 08:23 | 50.90499 | 4.48694 | 115 ft | 2 kts | 155° |
| 2026-05-07 08:23 | 50.90517 | 4.48673 | 115 ft | 4 kts | 112° |
| 2026-05-07 08:24 | 50.90518 | 4.48636 | 117 ft | 4 kts | 70° |
| 2026-05-07 08:24 | 50.90513 | 4.48617 | 118 ft | 1 kts | 65° |
| 2026-05-07 08:24 | 50.90512 | 4.48615 | 118 ft | 0 kts | 65° |
| 2026-05-07 08:27 | 50.90517 | 4.48631 | 117 ft | 3 kts | 65° |
| 2026-05-07 08:27 | 50.90531 | 4.48679 | 116 ft | 6 kts | 65° |
| 2026-05-07 08:28 | 50.90553 | 4.48755 | 120 ft | 9 kts | 65° |
| 2026-05-07 08:28 | 50.90582 | 4.48855 | 117 ft | 11 kts | 65° |
| 2026-05-07 08:28 | 50.90617 | 4.48978 | 117 ft | 13 kts | 65° |
| 2026-05-07 08:28 | 50.90658 | 4.49119 | 119 ft | 15 kts | 65° |
| 2026-05-07 08:29 | 50.90702 | 4.49271 | 117 ft | 16 kts | 65° |
| 2026-05-07 08:29 | 50.90749 | 4.49433 | 120 ft | 17 kts | 65° |
| 2026-05-07 08:29 | 50.90797 | 4.49598 | 122 ft | 17 kts | 65° |
| 2026-05-07 08:29 | 50.90862 | 4.49757 | 121 ft | 18 kts | 19° |
| 2026-05-07 08:30 | 50.90975 | 4.49853 | 121 ft | 20 kts | 39° |
| 2026-05-07 08:30 | 50.91036 | 4.49910 | 118 ft | 0 kts | 23° |
| 2026-05-07 08:31 | 50.91039 | 4.49912 | 118 ft | 2 kts | 23° |
| 2026-05-07 08:31 | 50.91064 | 4.49929 | 116 ft | 6 kts | 23° |
| 2026-05-07 08:31 | 50.91116 | 4.49940 | 119 ft | 9 kts | 341° |
| 2026-05-07 08:32 | 50.91125 | 4.49836 | 117 ft | 13 kts | 244° |
| 2026-05-07 08:32 | 50.91118 | 4.49810 | 117 ft | 0 kts | 245° |
| 2026-05-07 08:32 | 50.91108 | 4.49777 | 116 ft | 8 kts | 245° |
| 2026-05-07 08:33 | 50.91049 | 4.49573 | 115 ft | 37 kts | 245° |
| 2026-05-07 08:33 | 50.90856 | 4.48908 | 118 ft | 103 kts | 245° |
| 2026-05-07 08:33 | 50.90461 | 4.47544 | 122 ft | 167 kts | 245° |
| 2026-05-07 08:33 | 50.89917 | 4.45672 | 402 ft | 197 kts | 246° |
| 2026-05-07 08:34 | 50.89338 | 4.43603 | 1065 ft | 209 kts | 246° |
| 2026-05-07 08:34 | 50.88740 | 4.41572 | 2217 ft | 204 kts | 241° |
| 2026-05-07 08:34 | 50.87713 | 4.39930 | 2604 ft | 227 kts | 201° |
| 2026-05-07 08:34 | 50.86102 | 4.39718 | 2842 ft | 246 kts | 161° |
| 2026-05-07 08:35 | 50.84689 | 4.41265 | 3241 ft | 255 kts | 122° |
| 2026-05-07 08:35 | 50.84035 | 4.43851 | 3912 ft | 256 kts | 103° |
| 2026-05-07 08:35 | 50.83567 | 4.46594 | 4627 ft | 260 kts | 104° |
| 2026-05-07 08:35 | 50.83053 | 4.49418 | 5306 ft | 265 kts | 105° |
| 2026-05-07 08:36 | 50.82531 | 4.52186 | 5999 ft | 268 kts | 106° |
| 2026-05-07 08:36 | 50.81980 | 4.55026 | 6673 ft | 272 kts | 107° |
| 2026-05-07 08:36 | 50.81410 | 4.57904 | 7312 ft | 276 kts | 107° |
| 2026-05-07 08:36 | 50.80827 | 4.60812 | 7969 ft | 279 kts | 107° |
| 2026-05-07 08:37 | 50.80241 | 4.63707 | 8627 ft | 282 kts | 108° |
| 2026-05-07 08:37 | 50.79637 | 4.66677 | 9283 ft | 285 kts | 108° |
| 2026-05-07 08:37 | 50.79025 | 4.69680 | 9929 ft | 289 kts | 108° |
| 2026-05-07 08:37 | 50.78413 | 4.72737 | 10416 ft | 298 kts | 107° |
| 2026-05-07 08:38 | 50.77777 | 4.75989 | 10529 ft | 319 kts | 107° |
| 2026-05-07 08:38 | 50.77002 | 4.79385 | 10677 ft | 339 kts | 113° |
| 2026-05-07 08:38 | 50.75988 | 4.82853 | 10853 ft | 356 kts | 116° |
| 2026-05-07 08:38 | 50.74878 | 4.86397 | 11275 ft | 364 kts | 116° |
| 2026-05-07 08:39 | 50.73743 | 4.89997 | 11859 ft | 367 kts | 116° |
| 2026-05-07 08:39 | 50.72610 | 4.93619 | 12486 ft | 369 kts | 116° |
| 2026-05-07 08:39 | 50.71477 | 4.97283 | 13048 ft | 373 kts | 116° |
| 2026-05-07 08:39 | 50.70341 | 5.00987 | 13608 ft | 377 kts | 116° |
| 2026-05-07 08:40 | 50.69196 | 5.04740 | 14128 ft | 381 kts | 116° |
| 2026-05-07 08:40 | 50.68057 | 5.08481 | 14644 ft | 384 kts | 116° |
| 2026-05-07 08:40 | 50.66899 | 5.12287 | 15188 ft | 386 kts | 116° |
| 2026-05-07 08:40 | 50.65732 | 5.16118 | 15713 ft | 389 kts | 116° |
| 2026-05-07 08:41 | 50.64555 | 5.19981 | 16204 ft | 392 kts | 116° |
| 2026-05-07 08:41 | 50.63369 | 5.23863 | 16705 ft | 395 kts | 116° |
| 2026-05-07 08:41 | 50.62176 | 5.27761 | 17235 ft | 397 kts | 116° |
| 2026-05-07 08:41 | 50.60973 | 5.31689 | 17751 ft | 399 kts | 116° |
| 2026-05-07 08:42 | 50.59760 | 5.35642 | 18241 ft | 402 kts | 116° |
| 2026-05-07 08:42 | 50.58537 | 5.39620 | 18662 ft | 405 kts | 116° |
| 2026-05-07 08:42 | 50.57303 | 5.43630 | 19103 ft | 408 kts | 116° |
| 2026-05-07 08:42 | 50.56068 | 5.47635 | 19565 ft | 409 kts | 116° |
| 2026-05-07 08:43 | 50.54826 | 5.51657 | 20111 ft | 408 kts | 116° |
| 2026-05-07 08:43 | 50.53589 | 5.55662 | 20722 ft | 405 kts | 116° |
| 2026-05-07 08:43 | 50.52354 | 5.59645 | 21149 ft | 407 kts | 116° |
| 2026-05-07 08:43 | 50.51143 | 5.63719 | 20960 ft | 412 kts | 111° |
| 2026-05-07 08:44 | 50.50232 | 5.67925 | 21147 ft | 405 kts | 107° |
| 2026-05-07 08:44 | 50.49462 | 5.72202 | 21002 ft | 406 kts | 105° |
| 2026-05-07 08:44 | 50.48740 | 5.76449 | 21083 ft | 404 kts | 105° |
| 2026-05-07 08:44 | 50.48003 | 5.80730 | 21015 ft | 406 kts | 105° |
| 2026-05-07 08:45 | 50.47257 | 5.84930 | 21055 ft | 405 kts | 106° |
| 2026-05-07 08:45 | 50.46480 | 5.89183 | 21027 ft | 406 kts | 106° |
| 2026-05-07 08:45 | 50.45690 | 5.93428 | 21042 ft | 405 kts | 106° |
| 2026-05-07 08:45 | 50.44890 | 5.97679 | 21013 ft | 406 kts | 106° |
| 2026-05-07 08:46 | 50.44088 | 6.01912 | 21028 ft | 406 kts | 107° |
| 2026-05-07 08:46 | 50.43280 | 6.06165 | 21031 ft | 406 kts | 107° |
| 2026-05-07 08:46 | 50.42471 | 6.10412 | 21007 ft | 407 kts | 107° |
| 2026-05-07 08:46 | 50.41660 | 6.14665 | 21007 ft | 407 kts | 106° |
| 2026-05-07 08:47 | 50.40849 | 6.18908 | 21012 ft | 407 kts | 106° |
| 2026-05-07 08:47 | 50.40036 | 6.23159 | 21008 ft | 407 kts | 106° |
| 2026-05-07 08:47 | 50.39221 | 6.27415 | 20990 ft | 408 kts | 106° |
| 2026-05-07 08:47 | 50.38402 | 6.31672 | 20999 ft | 407 kts | 107° |
| 2026-05-07 08:48 | 50.37583 | 6.35915 | 21005 ft | 407 kts | 107° |
| 2026-05-07 08:48 | 50.36746 | 6.40146 | 20985 ft | 407 kts | 106° |
| 2026-05-07 08:48 | 50.36103 | 6.44462 | 20930 ft | 408 kts | 96° |
| 2026-05-07 08:48 | 50.35871 | 6.48867 | 21116 ft | 402 kts | 93° |
| 2026-05-07 08:49 | 50.35655 | 6.53237 | 21065 ft | 405 kts | 94° |
| 2026-05-07 08:49 | 50.35390 | 6.57659 | 20983 ft | 408 kts | 95° |
| 2026-05-07 08:49 | 50.35107 | 6.62062 | 21054 ft | 406 kts | 95° |
| 2026-05-07 08:49 | 50.34821 | 6.66495 | 20963 ft | 409 kts | 95° |
| 2026-05-07 08:50 | 50.34537 | 6.70911 | 21033 ft | 407 kts | 95° |
| 2026-05-07 08:50 | 50.34254 | 6.75320 | 20968 ft | 408 kts | 95° |
| 2026-05-07 08:50 | 50.33984 | 6.79738 | 21018 ft | 406 kts | 95° |
| 2026-05-07 08:50 | 50.33725 | 6.84043 | 20987 ft | 397 kts | 95° |
| 2026-05-07 08:51 | 50.33148 | 6.88173 | 20897 ft | 383 kts | 115° |
| 2026-05-07 08:51 | 50.31932 | 6.91740 | 21102 ft | 364 kts | 117° |
| 2026-05-07 08:51 | 50.30822 | 6.95319 | 20967 ft | 364 kts | 114° |
| 2026-05-07 08:51 | 50.29784 | 6.98895 | 20824 ft | 362 kts | 114° |
| 2026-05-07 08:52 | 50.28752 | 7.02455 | 20446 ft | 360 kts | 114° |
| 2026-05-07 08:52 | 50.27701 | 7.06017 | 20031 ft | 358 kts | 114° |
| 2026-05-07 08:52 | 50.26650 | 7.09545 | 19710 ft | 353 kts | 114° |
| 2026-05-07 08:52 | 50.25610 | 7.13020 | 19212 ft | 355 kts | 114° |
| 2026-05-07 08:53 | 50.24567 | 7.16499 | 18896 ft | 351 kts | 114° |
| 2026-05-07 08:53 | 50.23531 | 7.19952 | 18454 ft | 350 kts | 114° |
| 2026-05-07 08:53 | 50.22497 | 7.23395 | 18059 ft | 349 kts | 114° |
| 2026-05-07 08:53 | 50.21470 | 7.26811 | 17614 ft | 347 kts | 114° |
| 2026-05-07 08:54 | 50.20449 | 7.30199 | 17222 ft | 344 kts | 114° |
| 2026-05-07 08:54 | 50.19441 | 7.33575 | 16851 ft | 341 kts | 112° |
| 2026-05-07 08:54 | 50.18562 | 7.37008 | 16446 ft | 340 kts | 109° |
| 2026-05-07 08:54 | 50.17763 | 7.40442 | 16128 ft | 335 kts | 109° |
| 2026-05-07 08:55 | 50.16977 | 7.43864 | 15704 ft | 335 kts | 109° |
| 2026-05-07 08:55 | 50.16186 | 7.47270 | 15339 ft | 333 kts | 109° |
| 2026-05-07 08:55 | 50.15556 | 7.50698 | 15146 ft | 324 kts | 96° |
| 2026-05-07 08:55 | 50.15346 | 7.54073 | 15240 ft | 312 kts | 93° |
| 2026-05-07 08:56 | 50.15166 | 7.57477 | 14726 ft | 319 kts | 93° |
| 2026-05-07 08:56 | 50.14966 | 7.60951 | 14187 ft | 325 kts | 94° |
| 2026-05-07 08:56 | 50.14751 | 7.64473 | 13733 ft | 327 kts | 94° |
| 2026-05-07 08:56 | 50.14528 | 7.67971 | 13387 ft | 323 kts | 94° |
| 2026-05-07 08:57 | 50.14374 | 7.70323 | 13159 ft | 321 kts | 94° |
| 2026-05-07 08:57 | 50.14146 | 7.73769 | 12774 ft | 320 kts | 94° |
| 2026-05-07 08:57 | 50.13915 | 7.77215 | 12372 ft | 319 kts | 95° |
| 2026-05-07 08:57 | 50.13682 | 7.80646 | 11975 ft | 317 kts | 95° |
| 2026-05-07 08:58 | 50.13454 | 7.83999 | 11615 ft | 316 kts | 95° |
| 2026-05-07 08:58 | 50.13222 | 7.87393 | 11248 ft | 314 kts | 95° |
| 2026-05-07 08:58 | 50.12990 | 7.90768 | 10983 ft | 310 kts | 95° |
| 2026-05-07 08:58 | 50.12762 | 7.94054 | 11070 ft | 304 kts | 95° |
| 2026-05-07 08:59 | 50.12532 | 7.97374 | 11004 ft | 311 kts | 95° |
| 2026-05-07 08:59 | 50.12302 | 8.00673 | 11016 ft | 301 kts | 95° |
| 2026-05-07 08:59 | 50.12076 | 8.03887 | 10989 ft | 295 kts | 95° |
| 2026-05-07 08:59 | 50.11854 | 8.07040 | 11007 ft | 293 kts | 95° |
| 2026-05-07 09:00 | 50.11631 | 8.10214 | 11017 ft | 296 kts | 95° |
| 2026-05-07 09:00 | 50.11404 | 8.13419 | 11010 ft | 299 kts | 95° |
| 2026-05-07 09:00 | 50.11177 | 8.16616 | 10980 ft | 294 kts | 95° |
| 2026-05-07 09:00 | 50.10952 | 8.19764 | 10707 ft | 292 kts | 95° |
| 2026-05-07 09:01 | 50.10726 | 8.22924 | 10296 ft | 294 kts | 95° |
| 2026-05-07 09:01 | 50.10498 | 8.26101 | 9928 ft | 295 kts | 95° |
| 2026-05-07 09:01 | 50.10270 | 8.29258 | 9605 ft | 292 kts | 95° |
| 2026-05-07 09:01 | 50.10043 | 8.32382 | 9281 ft | 290 kts | 95° |
| 2026-05-07 09:02 | 50.09815 | 8.35504 | 8989 ft | 287 kts | 95° |
| 2026-05-07 09:02 | 50.09874 | 8.38543 | 8966 ft | 280 kts | 70° |
| 2026-05-07 09:02 | 50.10609 | 8.41339 | 9081 ft | 278 kts | 65° |
| 2026-05-07 09:02 | 50.11305 | 8.44122 | 9014 ft | 274 kts | 68° |
| 2026-05-07 09:03 | 50.11956 | 8.46882 | 8747 ft | 271 kts | 68° |
| 2026-05-07 09:03 | 50.12605 | 8.49646 | 8380 ft | 272 kts | 68° |
| 2026-05-07 09:03 | 50.13255 | 8.52406 | 8052 ft | 270 kts | 68° |
| 2026-05-07 09:03 | 50.13902 | 8.55140 | 7776 ft | 268 kts | 67° |
| 2026-05-07 09:04 | 50.14548 | 8.57860 | 7463 ft | 266 kts | 67° |
| 2026-05-07 09:04 | 50.15189 | 8.60552 | 7194 ft | 262 kts | 67° |
| 2026-05-07 09:04 | 50.15799 | 8.63123 | 7121 ft | 245 kts | 67° |
| 2026-05-07 09:04 | 50.16382 | 8.65580 | 6782 ft | 241 kts | 67° |
| 2026-05-07 09:05 | 50.16964 | 8.68030 | 6355 ft | 240 kts | 67° |
| 2026-05-07 09:05 | 50.17540 | 8.70452 | 6002 ft | 235 kts | 67° |
| 2026-05-07 09:05 | 50.18102 | 8.72821 | 5517 ft | 233 kts | 67° |
| 2026-05-07 09:05 | 50.18668 | 8.75207 | 4983 ft | 235 kts | 67° |
| 2026-05-07 09:06 | 50.19230 | 8.77580 | 4658 ft | 231 kts | 67° |
| 2026-05-07 09:06 | 50.19781 | 8.79912 | 4253 ft | 229 kts | 67° |
| 2026-05-07 09:06 | 50.20324 | 8.82219 | 4031 ft | 228 kts | 67° |
| 2026-05-07 09:06 | 50.20835 | 8.84575 | 4007 ft | 233 kts | 76° |
| 2026-05-07 09:07 | 50.20822 | 8.87096 | 4036 ft | 234 kts | 102° |
| 2026-05-07 09:07 | 50.20119 | 8.89416 | 3995 ft | 239 kts | 128° |
| 2026-05-07 09:07 | 50.18850 | 8.91067 | 4000 ft | 241 kts | 153° |
| 2026-05-07 09:07 | 50.17281 | 8.91932 | 4032 ft | 239 kts | 164° |
| 2026-05-07 09:08 | 50.15667 | 8.92620 | 4005 ft | 241 kts | 170° |
| 2026-05-07 09:08 | 50.14005 | 8.92595 | 3998 ft | 239 kts | 195° |
| 2026-05-07 09:08 | 50.12580 | 8.91469 | 3965 ft | 224 kts | 230° |
| 2026-05-07 09:08 | 50.11842 | 8.89491 | 4051 ft | 206 kts | 248° |
| 2026-05-07 09:09 | 50.11179 | 8.87573 | 4024 ft | 193 kts | 243° |
| 2026-05-07 09:09 | 50.10550 | 8.85729 | 4009 ft | 192 kts | 248° |
| 2026-05-07 09:09 | 50.10032 | 8.83831 | 3905 ft | 193 kts | 252° |
| 2026-05-07 09:09 | 50.09561 | 8.81849 | 3607 ft | 191 kts | 252° |
| 2026-05-07 09:10 | 50.09103 | 8.79928 | 3313 ft | 186 kts | 252° |
| 2026-05-07 09:10 | 50.08660 | 8.78083 | 3054 ft | 180 kts | 253° |
| 2026-05-07 09:10 | 50.08229 | 8.76287 | 2840 ft | 175 kts | 252° |
| 2026-05-07 09:10 | 50.07810 | 8.74543 | 2595 ft | 166 kts | 253° |
| 2026-05-07 09:11 | 50.07414 | 8.72896 | 2365 ft | 159 kts | 253° |
| 2026-05-07 09:11 | 50.07034 | 8.71302 | 2140 ft | 158 kts | 253° |
| 2026-05-07 09:11 | 50.06650 | 8.69691 | 1950 ft | 161 kts | 252° |
| 2026-05-07 09:11 | 50.06255 | 8.68049 | 1742 ft | 162 kts | 252° |
| 2026-05-07 09:12 | 50.05863 | 8.66404 | 1471 ft | 162 kts | 252° |
| 2026-05-07 09:12 | 50.05463 | 8.64784 | 1229 ft | 157 kts | 253° |
| 2026-05-07 09:12 | 50.05089 | 8.63209 | 1014 ft | 155 kts | 253° |
| 2026-05-07 09:12 | 50.04722 | 8.61642 | 822 ft | 152 kts | 252° |
| 2026-05-07 09:13 | 50.04356 | 8.60105 | 615 ft | 153 kts | 250° |
| 2026-05-07 09:13 | 50.03979 | 8.58543 | 405 ft | 153 kts | 250° |
| 2026-05-07 09:13 | 50.03631 | 8.57091 | 357 ft | 120 kts | 249° |
| 2026-05-07 09:13 | 50.03411 | 8.56158 | 349 ft | 66 kts | 265° |
| 2026-05-07 09:14 | 50.03456 | 8.55897 | 346 ft | 11 kts | 281° |
| 2026-05-07 09:14 | 50.03466 | 8.55768 | 350 ft | 12 kts | 276° |
| 2026-05-07 09:14 | 50.03480 | 8.55644 | 348 ft | 12 kts | 281° |
| 2026-05-07 09:14 | 50.03493 | 8.55521 | 348 ft | 11 kts | 269° |
| 2026-05-07 09:15 | 50.03477 | 8.55403 | 352 ft | 11 kts | 251° |
| 2026-05-07 09:15 | 50.03449 | 8.55294 | 343 ft | 11 kts | 247° |
| 2026-05-07 09:15 | 50.03419 | 8.55179 | 342 ft | 12 kts | 250° |
| 2026-05-07 09:15 | 50.03390 | 8.55045 | 352 ft | 15 kts | 250° |
| 2026-05-07 09:16 | 50.03349 | 8.54875 | 339 ft | 19 kts | 249° |
| 2026-05-07 09:16 | 50.03300 | 8.54676 | 334 ft | 20 kts | 249° |
| 2026-05-07 09:16 | 50.03292 | 8.54498 | 337 ft | 16 kts | 320° |
| 2026-05-07 09:16 | 50.03396 | 8.54431 | 339 ft | 16 kts | 342° |
| 2026-05-07 09:17 | 50.03498 | 8.54377 | 347 ft | 15 kts | 340° |
| 2026-05-07 09:17 | 50.03602 | 8.54321 | 339 ft | 16 kts | 341° |
| 2026-05-07 09:17 | 50.03676 | 8.54408 | 338 ft | 15 kts | 71° |
| 2026-05-07 09:17 | 50.03714 | 8.54561 | 349 ft | 15 kts | 68° |
| 2026-05-07 09:18 | 50.03751 | 8.54706 | 353 ft | 14 kts | 68° |
| 2026-05-07 09:18 | 50.03787 | 8.54846 | 351 ft | 14 kts | 70° |
| 2026-05-07 09:18 | 50.03819 | 8.54980 | 350 ft | 13 kts | 69° |
| 2026-05-07 09:18 | 50.03851 | 8.55111 | 348 ft | 13 kts | 69° |
| 2026-05-07 09:19 | 50.03886 | 8.55257 | 357 ft | 16 kts | 70° |
| 2026-05-07 09:19 | 50.03927 | 8.55433 | 353 ft | 19 kts | 69° |
| 2026-05-07 09:19 | 50.03975 | 8.55635 | 351 ft | 21 kts | 70° |
| 2026-05-07 09:19 | 50.04029 | 8.55859 | 352 ft | 23 kts | 69° |
| 2026-05-07 09:20 | 50.04086 | 8.56095 | 358 ft | 24 kts | 71° |
| 2026-05-07 09:20 | 50.04142 | 8.56343 | 358 ft | 24 kts | 69° |
| 2026-05-07 09:20 | 50.04201 | 8.56578 | 357 ft | 23 kts | 69° |
| 2026-05-07 09:20 | 50.04268 | 8.56792 | 360 ft | 22 kts | 36° |
| 2026-05-07 09:21 | 50.04415 | 8.56846 | 363 ft | 22 kts | 9° |
| 2026-05-07 09:21 | 50.04501 | 8.56871 | 358 ft | 3 kts | 13° |
| 2026-05-07 09:21 | 50.04520 | 8.56878 | 358 ft | 3 kts | 13° |
| 2026-05-07 09:21 | 50.04540 | 8.56885 | 358 ft | 3 kts | 13° |
| 2026-05-07 09:22 | 50.04564 | 8.56895 | 358 ft | 4 kts | 14° |
| 2026-05-07 09:22 | 50.04617 | 8.56913 | 359 ft | 10 kts | 13° |
| 2026-05-07 09:22 | 50.04683 | 8.56954 | 359 ft | 10 kts | 26° |
| 2026-05-07 09:22 | 50.04745 | 8.57001 | 363 ft | 10 kts | 25° |
| 2026-05-07 09:23 | 50.04807 | 8.57043 | 355 ft | 10 kts | 23° |
| 2026-05-07 09:23 | 50.04866 | 8.57086 | 362 ft | 9 kts | 26° |
| 2026-05-07 09:23 | 50.04876 | 8.57094 | 359 ft | 0 kts | 28° |
| 2026-05-07 09:23 | 50.04877 | 8.57095 | 358 ft | 1 kts | 36° |
| 2026-05-07 09:24 | 50.04881 | 8.57103 | 357 ft | 1 kts | 46° |
| 2026-05-07 09:24 | 50.04887 | 8.57113 | 362 ft | 1 kts | 47° |
| 2026-05-07 09:24 | 50.04892 | 8.57123 | 364 ft | 1 kts | 54° |
| 2026-05-07 09:24 | 50.04893 | 8.57138 | 359 ft | 2 kts | 86° |
| 2026-05-07 09:25 | 50.04891 | 8.57148 | 358 ft | 0 kts | 116° |
| 2026-05-07 09:25 | 50.04888 | 8.57151 | 359 ft | 0 kts | 132° |
| 2026-05-07 09:25 | 50.04885 | 8.57153 | 359 ft | 0 kts | 149° |
| 2026-05-07 09:25 | 50.04884 | 8.57154 | 359 ft | 0 kts | 154° |
| 2026-05-07 09:26 | 50.04883 | 8.57154 | 359 ft | 0 kts | 161° |
| 2026-05-07 09:26 | 50.04882 | 8.57154 | 359 ft | 0 kts | 163° |